sensor_id;sensor_type;location;lat;lon;timestamp;P1;durP1;ratioP1;P2;durP2;ratioP2
24163;SDS011;12319;49.204;8.116;2024-03-25T00:00:11;4.20;;;2.40;;
24163;SDS011;12319;49.204;8.116;2024-03-25T00:02:37;4.03;;;2.03;;
24163;SDS011;12319;49.204;8.116;2024-03-25T00:05:04;5.63;;;2.40;;
24163;SDS011;12319;49.204;8.116;2024-03-25T00:07:32;4.88;;;2.30;;
24163;SDS011;12319;49.204;8.116;2024-03-25T00:09:57;4.93;;;2.20;;
24163;SDS011;12319;49.204;8.116;2024-03-25T00:12:24;5.85;;;2.42;;
24163;SDS011;12319;49.204;8.116;2024-03-25T00:14:50;3.95;;;2.08;;
24163;SDS011;12319;49.204;8.116;2024-03-25T00:17:16;4.80;;;2.25;;
24163;SDS011;12319;49.204;8.116;2024-03-25T00:19:41;4.10;;;2.05;;
24163;SDS011;12319;49.204;8.116;2024-03-25T00:22:07;4.10;;;2.27;;
24163;SDS011;12319;49.204;8.116;2024-03-25T00:24:33;4.27;;;2.10;;
24163;SDS011;12319;49.204;8.116;2024-03-25T00:26:58;4.13;;;2.30;;
24163;SDS011;12319;49.204;8.116;2024-03-25T00:29:23;3.53;;;2.00;;
24163;SDS011;12319;49.204;8.116;2024-03-25T00:31:49;3.27;;;2.00;;
24163;SDS011;12319;49.204;8.116;2024-03-25T00:34:14;4.25;;;1.92;;
24163;SDS011;12319;49.204;8.116;2024-03-25T00:36:40;4.37;;;2.03;;
24163;SDS011;12319;49.204;8.116;2024-03-25T00:39:05;4.20;;;1.80;;
24163;SDS011;12319;49.204;8.116;2024-03-25T00:41:32;5.03;;;2.00;;
24163;SDS011;12319;49.204;8.116;2024-03-25T00:43:58;4.90;;;2.10;;
24163;SDS011;12319;49.204;8.116;2024-03-25T00:46:23;4.50;;;2.13;;
24163;SDS011;12319;49.204;8.116;2024-03-25T00:48:49;3.33;;;1.73;;
24163;SDS011;12319;49.204;8.116;2024-03-25T00:51:14;3.97;;;2.17;;
24163;SDS011;12319;49.204;8.116;2024-03-25T00:53:40;4.40;;;2.10;;
24163;SDS011;12319;49.204;8.116;2024-03-25T00:56:05;4.53;;;1.88;;
24163;SDS011;12319;49.204;8.116;2024-03-25T00:58:31;4.33;;;2.27;;
24163;SDS011;12319;49.204;8.116;2024-03-25T01:00:56;4.28;;;2.35;;
24163;SDS011;12319;49.204;8.116;2024-03-25T01:03:22;6.07;;;2.37;;
24163;SDS011;12319;49.204;8.116;2024-03-25T01:05:47;4.37;;;2.17;;
24163;SDS011;12319;49.204;8.116;2024-03-25T01:08:13;6.77;;;2.30;;
24163;SDS011;12319;49.204;8.116;2024-03-25T01:10:39;4.40;;;2.30;;
24163;SDS011;12319;49.204;8.116;2024-03-25T01:13:05;4.15;;;2.20;;
24163;SDS011;12319;49.204;8.116;2024-03-25T01:15:30;4.88;;;2.20;;
24163;SDS011;12319;49.204;8.116;2024-03-25T01:17:56;4.43;;;2.17;;
24163;SDS011;12319;49.204;8.116;2024-03-25T01:20:21;4.20;;;2.10;;
24163;SDS011;12319;49.204;8.116;2024-03-25T01:22:47;4.45;;;2.25;;
24163;SDS011;12319;49.204;8.116;2024-03-25T01:25:12;3.87;;;1.93;;
24163;SDS011;12319;49.204;8.116;2024-03-25T01:27:38;5.00;;;2.10;;
24163;SDS011;12319;49.204;8.116;2024-03-25T01:30:03;4.07;;;2.13;;
24163;SDS011;12319;49.204;8.116;2024-03-25T01:32:30;5.20;;;2.20;;
24163;SDS011;12319;49.204;8.116;2024-03-25T01:34:55;4.40;;;2.03;;
24163;SDS011;12319;49.204;8.116;2024-03-25T01:37:21;4.20;;;2.20;;
24163;SDS011;12319;49.204;8.116;2024-03-25T01:39:47;4.03;;;1.90;;
24163;SDS011;12319;49.204;8.116;2024-03-25T01:42:13;3.33;;;1.80;;
24163;SDS011;12319;49.204;8.116;2024-03-25T01:44:39;4.03;;;1.90;;
24163;SDS011;12319;49.204;8.116;2024-03-25T01:47:04;3.73;;;2.20;;
24163;SDS011;12319;49.204;8.116;2024-03-25T01:49:30;5.18;;;1.98;;
24163;SDS011;12319;49.204;8.116;2024-03-25T01:51:56;4.30;;;2.20;;
24163;SDS011;12319;49.204;8.116;2024-03-25T01:54:23;4.10;;;2.00;;
24163;SDS011;12319;49.204;8.116;2024-03-25T01:56:49;5.85;;;2.28;;
24163;SDS011;12319;49.204;8.116;2024-03-25T01:59:15;4.50;;;2.15;;
24163;SDS011;12319;49.204;8.116;2024-03-25T02:01:42;3.07;;;1.70;;
24163;SDS011;12319;49.204;8.116;2024-03-25T02:04:09;4.95;;;1.90;;
24163;SDS011;12319;49.204;8.116;2024-03-25T02:06:35;3.63;;;2.00;;
24163;SDS011;12319;49.204;8.116;2024-03-25T02:09:01;4.13;;;2.07;;
24163;SDS011;12319;49.204;8.116;2024-03-25T02:11:28;4.57;;;2.20;;
24163;SDS011;12319;49.204;8.116;2024-03-25T02:13:55;4.10;;;2.20;;
24163;SDS011;12319;49.204;8.116;2024-03-25T02:16:20;4.10;;;2.15;;
24163;SDS011;12319;49.204;8.116;2024-03-25T02:18:46;3.92;;;1.90;;
24163;SDS011;12319;49.204;8.116;2024-03-25T02:21:11;3.60;;;2.00;;
24163;SDS011;12319;49.204;8.116;2024-03-25T02:23:38;3.63;;;1.93;;
24163;SDS011;12319;49.204;8.116;2024-03-25T02:26:05;4.05;;;2.17;;
24163;SDS011;12319;49.204;8.116;2024-03-25T02:28:31;4.03;;;1.90;;
24163;SDS011;12319;49.204;8.116;2024-03-25T02:30:56;4.70;;;2.00;;
24163;SDS011;12319;49.204;8.116;2024-03-25T02:33:22;3.87;;;1.97;;
24163;SDS011;12319;49.204;8.116;2024-03-25T02:35:47;3.88;;;2.08;;
24163;SDS011;12319;49.204;8.116;2024-03-25T02:38:13;3.53;;;2.10;;
24163;SDS011;12319;49.204;8.116;2024-03-25T02:40:40;4.57;;;2.20;;
24163;SDS011;12319;49.204;8.116;2024-03-25T02:43:06;4.20;;;2.10;;
24163;SDS011;12319;49.204;8.116;2024-03-25T02:45:32;4.50;;;1.90;;
24163;SDS011;12319;49.204;8.116;2024-03-25T02:47:58;5.57;;;2.00;;
24163;SDS011;12319;49.204;8.116;2024-03-25T02:50:23;3.60;;;2.07;;
24163;SDS011;12319;49.204;8.116;2024-03-25T02:52:49;3.60;;;2.03;;
24163;SDS011;12319;49.204;8.116;2024-03-25T02:55:14;3.53;;;1.95;;
24163;SDS011;12319;49.204;8.116;2024-03-25T02:57:40;5.70;;;2.07;;
24163;SDS011;12319;49.204;8.116;2024-03-25T03:00:06;3.73;;;2.00;;
24163;SDS011;12319;49.204;8.116;2024-03-25T03:02:33;4.70;;;2.10;;
24163;SDS011;12319;49.204;8.116;2024-03-25T03:04:59;3.50;;;1.93;;
24163;SDS011;12319;49.204;8.116;2024-03-25T03:07:24;4.10;;;2.00;;
24163;SDS011;12319;49.204;8.116;2024-03-25T03:09:50;4.10;;;2.10;;
24163;SDS011;12319;49.204;8.116;2024-03-25T03:12:15;4.73;;;2.07;;
24163;SDS011;12319;49.204;8.116;2024-03-25T03:14:41;3.22;;;1.83;;
24163;SDS011;12319;49.204;8.116;2024-03-25T03:17:06;4.80;;;2.30;;
24163;SDS011;12319;49.204;8.116;2024-03-25T03:19:32;3.87;;;1.90;;
24163;SDS011;12319;49.204;8.116;2024-03-25T03:21:58;4.82;;;2.33;;
24163;SDS011;12319;49.204;8.116;2024-03-25T03:24:23;4.53;;;2.30;;
24163;SDS011;12319;49.204;8.116;2024-03-25T03:26:49;5.20;;;2.22;;
24163;SDS011;12319;49.204;8.116;2024-03-25T03:29:14;5.32;;;2.20;;
24163;SDS011;12319;49.204;8.116;2024-03-25T03:31:40;5.18;;;2.20;;
24163;SDS011;12319;49.204;8.116;2024-03-25T03:34:06;3.50;;;2.00;;
24163;SDS011;12319;49.204;8.116;2024-03-25T03:36:31;3.57;;;1.90;;
24163;SDS011;12319;49.204;8.116;2024-03-25T03:38:57;4.45;;;2.25;;
24163;SDS011;12319;49.204;8.116;2024-03-25T03:41:22;3.60;;;2.00;;
24163;SDS011;12319;49.204;8.116;2024-03-25T03:43:48;4.13;;;1.90;;
24163;SDS011;12319;49.204;8.116;2024-03-25T03:46:13;4.95;;;2.10;;
24163;SDS011;12319;49.204;8.116;2024-03-25T03:48:39;4.90;;;2.30;;
24163;SDS011;12319;49.204;8.116;2024-03-25T03:51:05;4.27;;;2.20;;
24163;SDS011;12319;49.204;8.116;2024-03-25T03:53:31;3.97;;;2.05;;
24163;SDS011;12319;49.204;8.116;2024-03-25T03:55:58;3.88;;;2.00;;
24163;SDS011;12319;49.204;8.116;2024-03-25T03:58:27;3.65;;;2.00;;
24163;SDS011;12319;49.204;8.116;2024-03-25T04:00:53;5.17;;;2.13;;
24163;SDS011;12319;49.204;8.116;2024-03-25T04:03:19;4.63;;;2.33;;
24163;SDS011;12319;49.204;8.116;2024-03-25T04:05:45;4.70;;;2.30;;
24163;SDS011;12319;49.204;8.116;2024-03-25T04:08:10;4.00;;;2.20;;
24163;SDS011;12319;49.204;8.116;2024-03-25T04:10:36;4.50;;;2.27;;
24163;SDS011;12319;49.204;8.116;2024-03-25T04:13:02;3.40;;;1.98;;
24163;SDS011;12319;49.204;8.116;2024-03-25T04:15:29;3.78;;;1.95;;
24163;SDS011;12319;49.204;8.116;2024-03-25T04:17:54;4.60;;;2.07;;
24163;SDS011;12319;49.204;8.116;2024-03-25T04:20:20;4.03;;;2.07;;
24163;SDS011;12319;49.204;8.116;2024-03-25T04:22:45;3.55;;;2.05;;
24163;SDS011;12319;49.204;8.116;2024-03-25T04:25:12;5.68;;;2.20;;
24163;SDS011;12319;49.204;8.116;2024-03-25T04:27:41;3.90;;;2.08;;
24163;SDS011;12319;49.204;8.116;2024-03-25T04:30:07;3.65;;;2.00;;
24163;SDS011;12319;49.204;8.116;2024-03-25T04:32:34;4.00;;;2.00;;
24163;SDS011;12319;49.204;8.116;2024-03-25T04:35:01;3.73;;;2.10;;
24163;SDS011;12319;49.204;8.116;2024-03-25T04:37:28;5.05;;;2.15;;
24163;SDS011;12319;49.204;8.116;2024-03-25T04:39:54;4.50;;;2.20;;
24163;SDS011;12319;49.204;8.116;2024-03-25T04:42:21;3.63;;;2.00;;
24163;SDS011;12319;49.204;8.116;2024-03-25T04:44:47;3.90;;;2.03;;
24163;SDS011;12319;49.204;8.116;2024-03-25T04:47:12;3.28;;;1.90;;
24163;SDS011;12319;49.204;8.116;2024-03-25T04:49:40;5.03;;;2.10;;
24163;SDS011;12319;49.204;8.116;2024-03-25T04:52:06;3.58;;;2.00;;
24163;SDS011;12319;49.204;8.116;2024-03-25T04:54:31;3.97;;;2.20;;
24163;SDS011;12319;49.204;8.116;2024-03-25T04:56:57;4.27;;;2.10;;
24163;SDS011;12319;49.204;8.116;2024-03-25T04:59:22;3.75;;;2.20;;
24163;SDS011;12319;49.204;8.116;2024-03-25T05:01:48;5.33;;;2.40;;
24163;SDS011;12319;49.204;8.116;2024-03-25T05:04:13;4.83;;;1.97;;
24163;SDS011;12319;49.204;8.116;2024-03-25T05:06:39;5.10;;;2.20;;
24163;SDS011;12319;49.204;8.116;2024-03-25T05:09:04;4.22;;;2.38;;
24163;SDS011;12319;49.204;8.116;2024-03-25T05:11:33;6.07;;;2.20;;
24163;SDS011;12319;49.204;8.116;2024-03-25T05:13:59;3.92;;;2.00;;
24163;SDS011;12319;49.204;8.116;2024-03-25T05:16:24;4.53;;;2.03;;
24163;SDS011;12319;49.204;8.116;2024-03-25T05:18:50;3.83;;;2.10;;
24163;SDS011;12319;49.204;8.116;2024-03-25T05:21:16;3.90;;;2.10;;
24163;SDS011;12319;49.204;8.116;2024-03-25T05:23:41;3.97;;;2.10;;
24163;SDS011;12319;49.204;8.116;2024-03-25T05:26:07;3.97;;;2.10;;
24163;SDS011;12319;49.204;8.116;2024-03-25T05:28:33;4.30;;;2.30;;
24163;SDS011;12319;49.204;8.116;2024-03-25T05:31:07;3.97;;;2.10;;
24163;SDS011;12319;49.204;8.116;2024-03-25T05:33:34;4.10;;;2.03;;
24163;SDS011;12319;49.204;8.116;2024-03-25T05:36:00;4.00;;;2.10;;
24163;SDS011;12319;49.204;8.116;2024-03-25T05:38:26;3.78;;;2.00;;
24163;SDS011;12319;49.204;8.116;2024-03-25T05:40:52;5.68;;;2.30;;
24163;SDS011;12319;49.204;8.116;2024-03-25T05:43:17;4.33;;;2.23;;
24163;SDS011;12319;49.204;8.116;2024-03-25T05:45:55;4.40;;;2.40;;
24163;SDS011;12319;49.204;8.116;2024-03-25T05:48:21;4.57;;;2.30;;
24163;SDS011;12319;49.204;8.116;2024-03-25T05:51:02;4.50;;;2.40;;
24163;SDS011;12319;49.204;8.116;2024-03-25T05:53:35;4.18;;;2.05;;
24163;SDS011;12319;49.204;8.116;2024-03-25T05:56:00;5.85;;;2.20;;
24163;SDS011;12319;49.204;8.116;2024-03-25T05:58:26;4.20;;;2.20;;
24163;SDS011;12319;49.204;8.116;2024-03-25T06:00:52;4.85;;;2.40;;
24163;SDS011;12319;49.204;8.116;2024-03-25T06:03:18;4.38;;;2.25;;
24163;SDS011;12319;49.204;8.116;2024-03-25T06:05:44;4.97;;;2.30;;
24163;SDS011;12319;49.204;8.116;2024-03-25T06:08:10;4.25;;;2.20;;
24163;SDS011;12319;49.204;8.116;2024-03-25T06:10:45;4.15;;;2.22;;
24163;SDS011;12319;49.204;8.116;2024-03-25T06:13:11;4.40;;;2.10;;
24163;SDS011;12319;49.204;8.116;2024-03-25T06:15:36;5.40;;;2.30;;
24163;SDS011;12319;49.204;8.116;2024-03-25T06:18:01;4.03;;;2.13;;
24163;SDS011;12319;49.204;8.116;2024-03-25T06:20:27;3.90;;;2.20;;
24163;SDS011;12319;49.204;8.116;2024-03-25T06:22:53;4.30;;;2.03;;
24163;SDS011;12319;49.204;8.116;2024-03-25T06:25:18;7.07;;;2.50;;
24163;SDS011;12319;49.204;8.116;2024-03-25T06:27:44;4.10;;;2.30;;
24163;SDS011;12319;49.204;8.116;2024-03-25T06:30:09;5.87;;;2.10;;
24163;SDS011;12319;49.204;8.116;2024-03-25T06:32:54;4.60;;;2.15;;
24163;SDS011;12319;49.204;8.116;2024-03-25T06:35:39;4.93;;;2.40;;
24163;SDS011;12319;49.204;8.116;2024-03-25T06:38:04;4.27;;;2.23;;
24163;SDS011;12319;49.204;8.116;2024-03-25T06:40:30;4.38;;;2.50;;
24163;SDS011;12319;49.204;8.116;2024-03-25T06:42:56;5.00;;;2.30;;
24163;SDS011;12319;49.204;8.116;2024-03-25T06:45:22;4.53;;;2.45;;
24163;SDS011;12319;49.204;8.116;2024-03-25T06:47:47;5.27;;;2.40;;
24163;SDS011;12319;49.204;8.116;2024-03-25T06:50:14;6.82;;;2.88;;
24163;SDS011;12319;49.204;8.116;2024-03-25T06:52:39;4.93;;;2.50;;
24163;SDS011;12319;49.204;8.116;2024-03-25T06:55:05;4.53;;;2.43;;
24163;SDS011;12319;49.204;8.116;2024-03-25T06:57:31;6.03;;;2.60;;
24163;SDS011;12319;49.204;8.116;2024-03-25T06:59:56;7.20;;;2.73;;
24163;SDS011;12319;49.204;8.116;2024-03-25T07:02:22;4.70;;;2.65;;
24163;SDS011;12319;49.204;8.116;2024-03-25T07:04:48;4.50;;;2.40;;
24163;SDS011;12319;49.204;8.116;2024-03-25T07:07:14;5.15;;;2.63;;
24163;SDS011;12319;49.204;8.116;2024-03-25T07:09:39;5.10;;;2.40;;
24163;SDS011;12319;49.204;8.116;2024-03-25T07:12:05;4.93;;;2.10;;
24163;SDS011;12319;49.204;8.116;2024-03-25T07:14:30;5.45;;;2.35;;
24163;SDS011;12319;49.204;8.116;2024-03-25T07:16:56;5.87;;;2.33;;
24163;SDS011;12319;49.204;8.116;2024-03-25T07:19:22;5.47;;;2.90;;
24163;SDS011;12319;49.204;8.116;2024-03-25T07:21:47;5.47;;;2.58;;
24163;SDS011;12319;49.204;8.116;2024-03-25T07:24:13;4.53;;;2.23;;
24163;SDS011;12319;49.204;8.116;2024-03-25T07:26:38;5.13;;;2.80;;
24163;SDS011;12319;49.204;8.116;2024-03-25T07:29:04;5.30;;;2.70;;
24163;SDS011;12319;49.204;8.116;2024-03-25T07:31:29;4.80;;;2.67;;
24163;SDS011;12319;49.204;8.116;2024-03-25T07:33:55;5.43;;;2.90;;
24163;SDS011;12319;49.204;8.116;2024-03-25T07:36:21;5.90;;;3.05;;
24163;SDS011;12319;49.204;8.116;2024-03-25T07:38:46;5.70;;;3.13;;
24163;SDS011;12319;49.204;8.116;2024-03-25T07:41:11;6.07;;;2.90;;
24163;SDS011;12319;49.204;8.116;2024-03-25T07:43:38;6.13;;;2.58;;
24163;SDS011;12319;49.204;8.116;2024-03-25T07:46:03;6.00;;;2.90;;
24163;SDS011;12319;49.204;8.116;2024-03-25T07:48:30;4.40;;;2.40;;
24163;SDS011;12319;49.204;8.116;2024-03-25T07:50:55;5.65;;;2.78;;
24163;SDS011;12319;49.204;8.116;2024-03-25T07:53:21;5.83;;;2.53;;
24163;SDS011;12319;49.204;8.116;2024-03-25T07:55:46;5.33;;;2.40;;
24163;SDS011;12319;49.204;8.116;2024-03-25T07:58:11;5.90;;;2.50;;
24163;SDS011;12319;49.204;8.116;2024-03-25T08:00:37;5.40;;;2.50;;
24163;SDS011;12319;49.204;8.116;2024-03-25T08:03:03;4.73;;;2.07;;
24163;SDS011;12319;49.204;8.116;2024-03-25T08:05:29;4.30;;;2.22;;
24163;SDS011;12319;49.204;8.116;2024-03-25T08:07:55;4.80;;;2.20;;
24163;SDS011;12319;49.204;8.116;2024-03-25T08:10:21;4.63;;;2.00;;
24163;SDS011;12319;49.204;8.116;2024-03-25T08:12:46;4.80;;;2.27;;
24163;SDS011;12319;49.204;8.116;2024-03-25T08:15:11;4.35;;;2.03;;
24163;SDS011;12319;49.204;8.116;2024-03-25T08:17:38;4.82;;;2.40;;
24163;SDS011;12319;49.204;8.116;2024-03-25T08:20:04;5.60;;;2.03;;
24163;SDS011;12319;49.204;8.116;2024-03-25T08:22:30;3.88;;;1.80;;
24163;SDS011;12319;49.204;8.116;2024-03-25T08:24:55;4.60;;;1.87;;
24163;SDS011;12319;49.204;8.116;2024-03-25T08:27:21;4.07;;;1.93;;
24163;SDS011;12319;49.204;8.116;2024-03-25T08:29:47;4.78;;;2.10;;
24163;SDS011;12319;49.204;8.116;2024-03-25T08:32:14;4.60;;;1.90;;
24163;SDS011;12319;49.204;8.116;2024-03-25T08:34:39;4.80;;;1.90;;
24163;SDS011;12319;49.204;8.116;2024-03-25T08:37:05;4.20;;;2.07;;
24163;SDS011;12319;49.204;8.116;2024-03-25T08:45:27;4.68;;;2.03;;
24163;SDS011;12319;49.204;8.116;2024-03-25T08:47:53;4.87;;;1.90;;
24163;SDS011;12319;49.204;8.116;2024-03-25T08:50:18;3.90;;;1.75;;
24163;SDS011;12319;49.204;8.116;2024-03-25T08:52:44;3.20;;;1.60;;
24163;SDS011;12319;49.204;8.116;2024-03-25T08:55:09;3.40;;;1.80;;
24163;SDS011;12319;49.204;8.116;2024-03-25T08:57:36;4.63;;;2.00;;
24163;SDS011;12319;49.204;8.116;2024-03-25T09:00:02;3.60;;;1.63;;
24163;SDS011;12319;49.204;8.116;2024-03-25T09:02:29;4.30;;;1.58;;
24163;SDS011;12319;49.204;8.116;2024-03-25T09:04:54;4.25;;;1.80;;
24163;SDS011;12319;49.204;8.116;2024-03-25T09:07:20;4.20;;;1.80;;
24163;SDS011;12319;49.204;8.116;2024-03-25T09:09:45;4.37;;;1.67;;
24163;SDS011;12319;49.204;8.116;2024-03-25T09:12:29;4.10;;;1.58;;
24163;SDS011;12319;49.204;8.116;2024-03-25T09:14:55;3.43;;;1.50;;
24163;SDS011;12319;49.204;8.116;2024-03-25T09:17:20;3.00;;;1.35;;
24163;SDS011;12319;49.204;8.116;2024-03-25T09:19:48;3.23;;;1.40;;
24163;SDS011;12319;49.204;8.116;2024-03-25T09:22:13;4.13;;;1.63;;
24163;SDS011;12319;49.204;8.116;2024-03-25T09:24:39;4.60;;;1.70;;
24163;SDS011;12319;49.204;8.116;2024-03-25T09:27:04;4.63;;;1.60;;
24163;SDS011;12319;49.204;8.116;2024-03-25T09:29:30;2.85;;;1.25;;
24163;SDS011;12319;49.204;8.116;2024-03-25T09:31:56;4.50;;;1.40;;
24163;SDS011;12319;49.204;8.116;2024-03-25T09:34:21;4.88;;;1.55;;
24163;SDS011;12319;49.204;8.116;2024-03-25T09:36:47;4.13;;;1.50;;
24163;SDS011;12319;49.204;8.116;2024-03-25T09:39:12;3.10;;;1.30;;
24163;SDS011;12319;49.204;8.116;2024-03-25T09:41:38;3.63;;;1.50;;
24163;SDS011;12319;49.204;8.116;2024-03-25T09:44:07;3.60;;;1.50;;
24163;SDS011;12319;49.204;8.116;2024-03-25T09:46:34;3.45;;;1.50;;
24163;SDS011;12319;49.204;8.116;2024-03-25T09:49:01;4.00;;;1.58;;
24163;SDS011;12319;49.204;8.116;2024-03-25T09:51:30;3.40;;;1.48;;
24163;SDS011;12319;49.204;8.116;2024-03-25T09:53:56;3.40;;;1.40;;
24163;SDS011;12319;49.204;8.116;2024-03-25T09:56:22;3.10;;;1.40;;
24163;SDS011;12319;49.204;8.116;2024-03-25T09:58:47;3.83;;;1.73;;
24163;SDS011;12319;49.204;8.116;2024-03-25T10:01:14;3.88;;;1.63;;
24163;SDS011;12319;49.204;8.116;2024-03-25T10:03:39;3.30;;;1.50;;
24163;SDS011;12319;49.204;8.116;2024-03-25T10:06:05;3.97;;;1.70;;
24163;SDS011;12319;49.204;8.116;2024-03-25T10:08:33;3.90;;;1.42;;
24163;SDS011;12319;49.204;8.116;2024-03-25T10:10:58;3.95;;;1.40;;
24163;SDS011;12319;49.204;8.116;2024-03-25T10:13:27;4.20;;;1.95;;
24163;SDS011;12319;49.204;8.116;2024-03-25T10:15:52;4.10;;;1.92;;
24163;SDS011;12319;49.204;8.116;2024-03-25T10:18:19;3.15;;;1.63;;
24163;SDS011;12319;49.204;8.116;2024-03-25T10:20:48;3.25;;;1.58;;
24163;SDS011;12319;49.204;8.116;2024-03-25T10:23:14;3.72;;;1.55;;
24163;SDS011;12319;49.204;8.116;2024-03-25T10:25:40;4.17;;;1.60;;
24163;SDS011;12319;49.204;8.116;2024-03-25T10:28:06;3.15;;;1.60;;
24163;SDS011;12319;49.204;8.116;2024-03-25T10:30:33;4.10;;;1.60;;
24163;SDS011;12319;49.204;8.116;2024-03-25T10:35:29;3.60;;;1.70;;
24163;SDS011;12319;49.204;8.116;2024-03-25T10:38:00;3.13;;;1.63;;
24163;SDS011;12319;49.204;8.116;2024-03-25T10:40:27;5.03;;;1.70;;
24163;SDS011;12319;49.204;8.116;2024-03-25T10:42:55;3.60;;;1.70;;
24163;SDS011;12319;49.204;8.116;2024-03-25T10:45:27;4.30;;;1.92;;
24163;SDS011;12319;49.204;8.116;2024-03-25T10:47:55;3.75;;;1.90;;
24163;SDS011;12319;49.204;8.116;2024-03-25T10:50:23;2.95;;;1.63;;
24163;SDS011;12319;49.204;8.116;2024-03-25T10:52:53;3.92;;;1.83;;
24163;SDS011;12319;49.204;8.116;2024-03-25T10:55:20;3.25;;;1.50;;
24163;SDS011;12319;49.204;8.116;2024-03-25T10:57:46;5.10;;;2.08;;
24163;SDS011;12319;49.204;8.116;2024-03-25T11:00:14;2.70;;;1.50;;
24163;SDS011;12319;49.204;8.116;2024-03-25T11:02:41;3.40;;;1.65;;
24163;SDS011;12319;49.204;8.116;2024-03-25T11:05:08;3.17;;;1.80;;
24163;SDS011;12319;49.204;8.116;2024-03-25T11:07:35;4.93;;;1.80;;
24163;SDS011;12319;49.204;8.116;2024-03-25T11:10:04;3.80;;;1.67;;
24163;SDS011;12319;49.204;8.116;2024-03-25T11:12:37;3.97;;;1.60;;
24163;SDS011;12319;49.204;8.116;2024-03-25T11:15:05;4.20;;;1.70;;
24163;SDS011;12319;49.204;8.116;2024-03-25T11:17:32;4.20;;;1.80;;
24163;SDS011;12319;49.204;8.116;2024-03-25T11:20:10;4.30;;;1.58;;
24163;SDS011;12319;49.204;8.116;2024-03-25T11:22:50;3.37;;;1.70;;
24163;SDS011;12319;49.204;8.116;2024-03-25T11:25:17;3.53;;;1.48;;
24163;SDS011;12319;49.204;8.116;2024-03-25T11:27:45;3.97;;;1.70;;
24163;SDS011;12319;49.204;8.116;2024-03-25T11:30:12;5.13;;;1.80;;
24163;SDS011;12319;49.204;8.116;2024-03-25T11:32:52;4.30;;;1.65;;
24163;SDS011;12319;49.204;8.116;2024-03-25T11:35:18;3.60;;;1.60;;
24163;SDS011;12319;49.204;8.116;2024-03-25T11:37:44;3.13;;;1.52;;
24163;SDS011;12319;49.204;8.116;2024-03-25T11:40:11;4.30;;;1.80;;
24163;SDS011;12319;49.204;8.116;2024-03-25T11:42:39;2.75;;;1.50;;
24163;SDS011;12319;49.204;8.116;2024-03-25T11:45:06;3.33;;;1.70;;
24163;SDS011;12319;49.204;8.116;2024-03-25T11:47:32;3.43;;;1.60;;
24163;SDS011;12319;49.204;8.116;2024-03-25T11:49:58;3.60;;;1.70;;
24163;SDS011;12319;49.204;8.116;2024-03-25T11:52:29;4.05;;;1.83;;
24163;SDS011;12319;49.204;8.116;2024-03-25T11:54:55;4.35;;;1.80;;
24163;SDS011;12319;49.204;8.116;2024-03-25T11:57:21;3.38;;;1.77;;
24163;SDS011;12319;49.204;8.116;2024-03-25T11:59:47;2.80;;;1.50;;
24163;SDS011;12319;49.204;8.116;2024-03-25T12:02:16;3.70;;;1.85;;
24163;SDS011;12319;49.204;8.116;2024-03-25T12:04:42;5.80;;;1.90;;
24163;SDS011;12319;49.204;8.116;2024-03-25T12:07:09;3.35;;;1.70;;
24163;SDS011;12319;49.204;8.116;2024-03-25T12:09:41;3.92;;;1.60;;
24163;SDS011;12319;49.204;8.116;2024-03-25T12:12:26;3.38;;;1.80;;
24163;SDS011;12319;49.204;8.116;2024-03-25T12:14:53;3.75;;;1.90;;
24163;SDS011;12319;49.204;8.116;2024-03-25T12:17:19;5.28;;;2.20;;
24163;SDS011;12319;49.204;8.116;2024-03-25T12:22:31;4.70;;;1.60;;
24163;SDS011;12319;49.204;8.116;2024-03-25T12:24:58;3.20;;;1.52;;
24163;SDS011;12319;49.204;8.116;2024-03-25T12:27:24;3.05;;;1.60;;
24163;SDS011;12319;49.204;8.116;2024-03-25T12:29:57;5.10;;;1.92;;
24163;SDS011;12319;49.204;8.116;2024-03-25T12:32:31;3.30;;;1.60;;
24163;SDS011;12319;49.204;8.116;2024-03-25T12:34:57;3.95;;;1.70;;
24163;SDS011;12319;49.204;8.116;2024-03-25T12:37:23;3.30;;;1.70;;
24163;SDS011;12319;49.204;8.116;2024-03-25T12:39:50;3.40;;;1.67;;
24163;SDS011;12319;49.204;8.116;2024-03-25T12:42:16;3.47;;;1.63;;
24163;SDS011;12319;49.204;8.116;2024-03-25T12:44:42;2.75;;;1.60;;
24163;SDS011;12319;49.204;8.116;2024-03-25T12:47:07;3.50;;;1.70;;
24163;SDS011;12319;49.204;8.116;2024-03-25T12:49:33;3.67;;;1.70;;
24163;SDS011;12319;49.204;8.116;2024-03-25T12:51:58;3.85;;;1.90;;
24163;SDS011;12319;49.204;8.116;2024-03-25T12:54:24;3.17;;;1.50;;
24163;SDS011;12319;49.204;8.116;2024-03-25T12:56:49;4.00;;;1.70;;
24163;SDS011;12319;49.204;8.116;2024-03-25T12:59:15;3.27;;;1.40;;
24163;SDS011;12319;49.204;8.116;2024-03-25T13:01:40;6.35;;;1.65;;
24163;SDS011;12319;49.204;8.116;2024-03-25T13:04:06;3.40;;;1.70;;
24163;SDS011;12319;49.204;8.116;2024-03-25T13:06:32;3.22;;;1.60;;
24163;SDS011;12319;49.204;8.116;2024-03-25T13:08:57;3.90;;;1.70;;
24163;SDS011;12319;49.204;8.116;2024-03-25T13:11:23;2.53;;;1.43;;
24163;SDS011;12319;49.204;8.116;2024-03-25T13:13:48;2.58;;;1.50;;
24163;SDS011;12319;49.204;8.116;2024-03-25T13:16:14;3.80;;;1.73;;
24163;SDS011;12319;49.204;8.116;2024-03-25T13:18:39;2.97;;;1.50;;
24163;SDS011;12319;49.204;8.116;2024-03-25T13:21:05;3.25;;;1.60;;
24163;SDS011;12319;49.204;8.116;2024-03-25T13:23:30;3.30;;;1.50;;
24163;SDS011;12319;49.204;8.116;2024-03-25T13:25:56;2.83;;;1.40;;
24163;SDS011;12319;49.204;8.116;2024-03-25T13:28:21;4.57;;;2.00;;
24163;SDS011;12319;49.204;8.116;2024-03-25T13:30:47;4.37;;;1.70;;
24163;SDS011;12319;49.204;8.116;2024-03-25T13:33:12;3.53;;;1.80;;
24163;SDS011;12319;49.204;8.116;2024-03-25T13:35:38;5.13;;;1.95;;
24163;SDS011;12319;49.204;8.116;2024-03-25T13:38:03;2.87;;;1.30;;
24163;SDS011;12319;49.204;8.116;2024-03-25T13:40:29;3.57;;;1.70;;
24163;SDS011;12319;49.204;8.116;2024-03-25T13:42:54;3.58;;;1.45;;
24163;SDS011;12319;49.204;8.116;2024-03-25T13:45:20;3.10;;;1.50;;
24163;SDS011;12319;49.204;8.116;2024-03-25T13:47:45;5.03;;;1.77;;
24163;SDS011;12319;49.204;8.116;2024-03-25T13:50:11;3.70;;;1.80;;
24163;SDS011;12319;49.204;8.116;2024-03-25T13:52:36;4.15;;;1.90;;
24163;SDS011;12319;49.204;8.116;2024-03-25T13:55:02;3.53;;;1.77;;
24163;SDS011;12319;49.204;8.116;2024-03-25T13:57:28;3.92;;;1.80;;
24163;SDS011;12319;49.204;8.116;2024-03-25T13:59:53;3.33;;;1.70;;
24163;SDS011;12319;49.204;8.116;2024-03-25T14:02:19;6.25;;;2.20;;
24163;SDS011;12319;49.204;8.116;2024-03-25T14:04:45;3.23;;;1.60;;
24163;SDS011;12319;49.204;8.116;2024-03-25T14:07:10;3.80;;;1.53;;
24163;SDS011;12319;49.204;8.116;2024-03-25T14:09:36;3.70;;;1.60;;
24163;SDS011;12319;49.204;8.116;2024-03-25T14:12:02;3.77;;;1.80;;
24163;SDS011;12319;49.204;8.116;2024-03-25T14:14:28;4.55;;;1.80;;
24163;SDS011;12319;49.204;8.116;2024-03-25T14:16:54;3.65;;;1.60;;
24163;SDS011;12319;49.204;8.116;2024-03-25T14:19:19;3.90;;;1.70;;
24163;SDS011;12319;49.204;8.116;2024-03-25T14:21:47;3.07;;;1.53;;
24163;SDS011;12319;49.204;8.116;2024-03-25T14:24:13;5.18;;;1.85;;
24163;SDS011;12319;49.204;8.116;2024-03-25T14:26:39;4.95;;;2.00;;
24163;SDS011;12319;49.204;8.116;2024-03-25T14:29:05;3.83;;;1.60;;
24163;SDS011;12319;49.204;8.116;2024-03-25T14:31:31;2.67;;;1.50;;
24163;SDS011;12319;49.204;8.116;2024-03-25T14:33:57;2.97;;;1.70;;
24163;SDS011;12319;49.204;8.116;2024-03-25T14:36:23;4.10;;;2.00;;
24163;SDS011;12319;49.204;8.116;2024-03-25T14:38:49;4.07;;;2.10;;
24163;SDS011;12319;49.204;8.116;2024-03-25T14:41:18;3.43;;;1.77;;
24163;SDS011;12319;49.204;8.116;2024-03-25T14:43:44;3.25;;;1.70;;
24163;SDS011;12319;49.204;8.116;2024-03-25T14:46:10;4.22;;;1.80;;
24163;SDS011;12319;49.204;8.116;2024-03-25T14:48:36;3.83;;;2.00;;
24163;SDS011;12319;49.204;8.116;2024-03-25T14:51:01;5.43;;;2.00;;
24163;SDS011;12319;49.204;8.116;2024-03-25T14:53:27;4.32;;;1.80;;